createdAt,value
2019-02-11T00:00:34.920Z,0.38
2019-02-11T00:01:44.339Z,0
2019-02-11T00:02:53.764Z,0
2019-02-11T00:04:02.949Z,0
2019-02-11T00:05:12.627Z,0
2019-02-11T00:06:21.800Z,0
2019-02-11T00:07:30.989Z,0
2019-02-11T00:08:40.418Z,0
2019-02-11T00:09:50.348Z,0
2019-02-11T00:11:00.016Z,0
2019-02-11T00:12:09.684Z,0
2019-02-11T00:13:19.382Z,0.95
2019-02-11T00:14:28.803Z,0
2019-02-11T00:15:38.726Z,0
2019-02-11T00:16:48.399Z,0
2019-02-11T00:17:57.819Z,0
2019-02-11T00:19:07.490Z,0.28
2019-02-11T00:20:18.417Z,2.56
2019-02-11T00:21:27.849Z,0.76
2019-02-11T00:22:37.545Z,0.76
2019-02-11T00:23:47.467Z,0
2019-02-11T00:24:57.143Z,0
2019-02-11T00:26:06.564Z,0
2019-02-11T00:27:15.737Z,0
2019-02-11T00:28:25.158Z,0
2019-02-11T00:29:34.333Z,0
2019-02-11T00:30:44.253Z,0
2019-02-11T00:31:53.684Z,0.09
2019-02-11T00:33:03.160Z,0
2019-02-11T00:34:12.339Z,0
2019-02-11T00:35:22.033Z,1.89
2019-02-11T00:36:31.789Z,1.99
2019-02-11T00:37:41.479Z,3.5
2019-02-11T00:38:52.900Z,1.42
2019-02-11T00:40:02.835Z,1.23
2019-02-11T00:41:12.501Z,1.51
2019-02-11T00:42:22.437Z,0.09
2019-02-11T00:43:31.858Z,0.85
2019-02-11T00:44:41.549Z,2.08
2019-02-11T00:45:51.226Z,0.85
2019-02-11T00:47:00.657Z,0.19
2019-02-11T00:48:10.587Z,0.09
2019-02-11T00:49:20.028Z,0
2019-02-11T00:50:29.449Z,0
2019-02-11T00:51:38.883Z,2.27
2019-02-11T00:52:48.832Z,1.51
2019-02-11T00:53:58.256Z,0
2019-02-11T00:55:07.444Z,0
2019-02-11T00:56:17.415Z,0
2019-02-11T00:57:27.334Z,0
2019-02-11T00:58:36.763Z,1.42
2019-02-11T00:59:46.440Z,0.19
2019-02-11T01:00:55.610Z,1.51
2019-02-11T01:02:05.279Z,1.7
2019-02-11T01:03:14.798Z,1.7
2019-02-11T01:04:24.500Z,0.76
2019-02-11T01:05:34.178Z,0.19
2019-02-11T01:06:43.617Z,1.14
2019-02-11T01:07:53.537Z,0
2019-02-11T01:09:03.463Z,0
2019-02-11T01:10:13.136Z,0.19
2019-02-11T01:11:22.805Z,0.95
2019-02-11T01:12:32.738Z,0
2019-02-11T01:13:42.412Z,1.51
2019-02-11T01:14:52.352Z,0
2019-02-11T01:16:02.036Z,0
2019-02-11T01:17:11.713Z,0.28
2019-02-11T01:18:21.642Z,0
2019-02-11T01:19:31.561Z,0
2019-02-11T01:20:41.230Z,0
2019-02-11T01:21:50.904Z,0.76
2019-02-11T01:23:00.583Z,0.85
2019-02-11T01:24:10.277Z,0
2019-02-11T01:25:20.203Z,0
2019-02-11T01:26:29.368Z,0.38
2019-02-11T01:27:38.784Z,0.66
2019-02-11T01:28:48.457Z,0.57
2019-02-11T01:29:57.879Z,0.57
2019-02-11T01:31:07.358Z,0.76
2019-02-11T01:32:16.780Z,3.6
2019-02-11T01:33:26.708Z,5.4
2019-02-11T01:34:36.442Z,4.46
2019-02-11T01:35:45.890Z,4.93
2019-02-11T01:36:55.310Z,3.22
2019-02-11T01:38:04.487Z,3.32
2019-02-11T01:39:13.910Z,2.47
2019-02-11T01:40:23.829Z,7.12
2019-02-11T01:41:33.003Z,3.32
2019-02-11T01:42:42.686Z,3.79
2019-02-11T01:43:52.624Z,5.41
2019-02-11T01:45:02.049Z,6.45
2019-02-11T01:46:11.505Z,5.31
2019-02-11T01:47:21.177Z,5.69
2019-02-11T01:48:30.110Z,6.92
2019-02-11T01:49:40.042Z,7.5
2019-02-11T01:50:49.466Z,6.92
2019-02-11T01:51:59.385Z,10.34
2019-02-11T01:53:08.816Z,6.54
2019-02-11T01:54:18.238Z,6.07
2019-02-11T01:55:28.172Z,9.2
2019-02-11T01:56:38.271Z,9.11
2019-02-11T01:57:48.296Z,9.67
2019-02-11T01:58:58.212Z,10.63
2019-02-11T02:00:07.642Z,8.82
2019-02-11T02:01:17.568Z,5.02
2019-02-11T02:02:27.246Z,7.87
2019-02-11T02:03:36.920Z,12.34
2019-02-11T02:04:46.340Z,9.2
2019-02-11T02:05:56.011Z,14.51
2019-02-11T02:07:05.679Z,10.72
2019-02-11T02:08:15.362Z,13.19
2019-02-11T02:09:24.535Z,14.23
2019-02-11T02:10:34.207Z,17.17
2019-02-11T02:11:43.629Z,12.05
2019-02-11T02:12:53.545Z,12.24
2019-02-11T02:14:03.248Z,14.61
2019-02-11T02:15:12.693Z,15.37
2019-02-11T02:16:22.626Z,7.31
2019-02-11T02:17:32.309Z,9.2
2019-02-11T02:18:41.736Z,10.91
2019-02-11T02:19:51.407Z,16.41
2019-02-11T02:21:01.094Z,19.26
2019-02-11T02:22:10.761Z,13.19
2019-02-11T02:23:20.704Z,14.32
2019-02-11T02:24:30.618Z,22.39
2019-02-11T02:25:40.053Z,20.87
2019-02-11T02:26:49.724Z,15.56
2019-02-11T02:27:59.151Z,15.56
2019-02-11T02:29:08.590Z,18.79
2019-02-11T02:30:18.517Z,20.11
2019-02-11T02:31:28.199Z,17.93
2019-02-11T02:32:38.129Z,17.83
2019-02-11T02:33:48.057Z,14.23
2019-02-11T02:34:57.736Z,23.63
2019-02-11T02:36:07.602Z,15.47
2019-02-11T02:37:17.295Z,19.92
2019-02-11T02:38:27.217Z,21.35
2019-02-11T02:39:36.640Z,22.01
2019-02-11T02:40:46.560Z,21.25
2019-02-11T02:41:55.984Z,23.63
2019-02-11T02:43:05.662Z,17.17
2019-02-11T02:46:54.633Z,19.83
2019-02-11T02:48:04.069Z,22.49
2019-02-11T02:49:14.014Z,22.3
2019-02-11T02:50:23.691Z,19.45
2019-02-11T02:51:33.379Z,17.93
2019-02-11T02:52:42.806Z,21.44
2019-02-11T02:53:52.540Z,24.67
2019-02-11T02:55:02.503Z,24.67
2019-02-11T02:56:12.193Z,18.88
2019-02-11T02:57:22.133Z,24.48
2019-02-11T02:58:31.820Z,27.33
2019-02-11T02:59:41.762Z,24.95
2019-02-11T03:00:51.688Z,23.72
2019-02-11T03:02:00.894Z,19.07
2019-02-11T03:03:10.825Z,22.3
2019-02-11T03:04:20.261Z,28.27
2019-02-11T03:05:30.198Z,25.81
2019-02-11T03:06:39.961Z,21.25
2019-02-11T03:07:49.153Z,28.56
2019-02-11T03:08:58.840Z,31.98
2019-02-11T03:10:08.780Z,30.36
2019-02-11T03:11:18.476Z,35.86
2019-02-11T03:12:28.465Z,32.83
2019-02-11T03:13:37.910Z,35.39
2019-02-11T03:14:47.593Z,32.26
2019-02-11T03:15:57.026Z,35.49
2019-02-11T03:17:06.982Z,34.92
2019-02-11T03:18:16.409Z,37.29
2019-02-11T03:19:26.100Z,33.59
2019-02-11T03:20:35.298Z,30.27
2019-02-11T03:21:44.982Z,34.63
2019-02-11T03:22:54.908Z,32.17
2019-02-11T03:24:04.851Z,41.08
2019-02-11T03:25:14.558Z,41.46
2019-02-11T03:26:23.757Z,35.2
2019-02-11T03:27:33.446Z,38.62
2019-02-11T03:28:43.383Z,41.85
2019-02-11T03:29:53.350Z,39.09
2019-02-11T03:31:03.311Z,36.82
2019-02-11T03:32:13.139Z,35.39
2019-02-11T03:33:23.296Z,34.44
2019-02-11T03:34:33.076Z,32.45
2019-02-11T03:35:42.751Z,29.32
2019-02-11T03:36:52.444Z,34.34
2019-02-11T03:38:02.375Z,33.69
2019-02-11T03:39:12.063Z,39.11
2019-02-11T03:40:22.003Z,41.37
2019-02-11T03:41:31.433Z,46.69
2019-02-11T03:42:40.866Z,37.29
2019-02-11T03:43:50.551Z,45.73
2019-02-11T03:45:02.818Z,45.83
2019-02-11T03:46:12.741Z,34.73
2019-02-11T03:47:21.917Z,41.75
2019-02-11T03:48:31.611Z,40.52
2019-02-11T03:49:41.553Z,45.26
2019-02-11T03:50:50.997Z,43.08
2019-02-11T03:52:00.703Z,47.34
2019-02-11T03:53:09.881Z,42.32
2019-02-11T03:54:19.557Z,48.49
2019-02-11T03:55:29.492Z,49.82
2019-02-11T03:56:39.445Z,42.7
2019-02-11T03:57:49.135Z,48.01
2019-02-11T03:58:58.573Z,43.27
2019-02-11T04:00:08.268Z,40.52
2019-02-11T04:01:18.189Z,50.01
2019-02-11T04:02:27.629Z,47.06
2019-02-11T04:03:37.311Z,48.39
2019-02-11T04:04:46.983Z,51.24
2019-02-11T04:05:56.931Z,50.48
2019-02-11T04:07:06.353Z,50.29
2019-02-11T04:08:16.035Z,46.88
2019-02-11T04:09:25.976Z,47.53
2019-02-11T04:10:35.937Z,49.05
2019-02-11T04:11:45.375Z,48.3
2019-02-11T04:12:55.315Z,45.17
2019-02-11T04:14:05.002Z,48.2
2019-02-11T04:15:14.446Z,50.1
2019-02-11T04:16:23.888Z,51.24
2019-02-11T04:17:33.583Z,48.68
2019-02-11T04:18:43.290Z,43.08
2019-02-11T04:19:52.969Z,49.82
2019-02-11T04:21:02.684Z,43.74
2019-02-11T04:22:12.114Z,50.57
2019-02-11T04:23:22.070Z,52.47
2019-02-11T04:24:32.007Z,50.29
2019-02-11T04:25:41.964Z,53.14
2019-02-11T04:26:51.151Z,54.37
2019-02-11T04:28:00.585Z,53.8
2019-02-11T04:29:10.543Z,52.85
2019-02-11T04:30:20.479Z,56.36
2019-02-11T04:31:30.411Z,53.33
2019-02-11T04:32:39.848Z,48.01
2019-02-11T04:33:49.804Z,54.3
2019-02-11T04:35:01.171Z,55.7
2019-02-11T04:36:10.862Z,46.69
2019-02-11T04:37:20.057Z,52
2019-02-11T04:38:30.032Z,49.72
2019-02-11T04:39:39.702Z,51.81
2019-02-11T04:40:49.388Z,49.63
2019-02-11T04:41:58.570Z,54.27
2019-02-11T04:43:08.284Z,49.24
2019-02-11T04:44:18.030Z,47.34
2019-02-11T04:45:36.588Z,49.05
2019-02-11T04:46:46.524Z,47.18
2019-02-11T04:47:56.479Z,49.46
2019-02-11T04:49:06.403Z,51.24
2019-02-11T04:50:15.841Z,52.47
2019-02-11T04:51:25.271Z,54.94
2019-02-11T04:52:34.692Z,48.77
2019-02-11T04:53:44.369Z,56.17
2019-02-11T04:54:54.112Z,56.84
2019-02-11T04:56:03.794Z,47.53
2019-02-11T04:57:13.736Z,53.23
2019-02-11T04:58:23.161Z,53.99
2019-02-11T04:59:33.087Z,54.85
2019-02-11T05:00:42.763Z,54.18
2019-02-11T05:01:52.450Z,53.89
2019-02-11T05:03:02.148Z,57.12
2019-02-11T05:04:11.573Z,53.52
2019-02-11T05:05:21.257Z,58.17
2019-02-11T05:06:31.201Z,53.52
2019-02-11T05:07:40.646Z,55.22
2019-02-11T05:08:50.319Z,55.22
2019-02-11T05:09:59.999Z,54.75
2019-02-11T05:11:08.705Z,52
2019-02-11T05:12:18.662Z,52.95
2019-02-11T05:13:28.596Z,55.51
2019-02-11T05:14:46.417Z,54.94
2019-02-11T05:15:56.366Z,57.03
2019-02-11T05:17:05.788Z,54.85
2019-02-11T05:18:16.884Z,55.32
2019-02-11T05:19:27.035Z,51.24
2019-02-11T05:20:36.969Z,53.23
2019-02-11T05:21:46.656Z,55.22
2019-02-11T05:22:56.334Z,55.32
2019-02-11T05:24:06.052Z,52.47
2019-02-11T05:25:15.782Z,51.43
2019-02-11T05:26:25.762Z,44.88
2019-02-11T05:27:35.462Z,53.64
2019-02-11T05:28:45.428Z,50.95
2019-02-11T05:29:54.883Z,45.83
2019-02-11T05:31:04.399Z,48.58
2019-02-11T05:32:14.339Z,50.01
2019-02-11T05:33:24.302Z,51.9
2019-02-11T05:34:34.248Z,44.12
2019-02-11T05:35:44.173Z,48.22
2019-02-11T05:36:53.854Z,49.34
2019-02-11T05:38:03.817Z,45.92
2019-02-11T05:39:13.509Z,49.74
2019-02-11T05:40:23.198Z,47.92
2019-02-11T05:41:32.893Z,48.58
2019-02-11T05:42:42.857Z,49.27
2019-02-11T05:43:52.782Z,47.63
2019-02-11T05:45:02.744Z,44.4
2019-02-11T05:46:12.686Z,43.17
2019-02-11T05:47:22.366Z,48.58
2019-02-11T05:48:32.055Z,45.17
2019-02-11T05:49:41.988Z,48.2
2019-02-11T05:50:51.421Z,46.11
2019-02-11T05:52:01.135Z,37.86
2019-02-11T05:53:11.072Z,40.16
2019-02-11T05:54:20.802Z,44.34
2019-02-11T05:55:30.485Z,45.47
2019-02-11T05:56:40.161Z,41.66
2019-02-11T05:57:49.598Z,38.81
2019-02-11T05:58:59.553Z,38.62
2019-02-11T06:00:09.493Z,34.27
2019-02-11T06:01:19.177Z,33.42
2019-02-11T06:02:28.870Z,37.69
2019-02-11T06:03:38.549Z,33.5
2019-02-11T06:04:48.251Z,31.31
2019-02-11T06:05:57.947Z,31.6
2019-02-11T06:07:07.650Z,33.4
2019-02-11T06:08:17.581Z,35.2
2019-02-11T06:09:27.296Z,33.78
2019-02-11T06:10:36.472Z,36.34
2019-02-11T06:11:46.146Z,32.26
2019-02-11T06:12:56.073Z,26.18
2019-02-11T06:14:05.757Z,33.3
2019-02-11T06:15:15.702Z,34.44
2019-02-11T06:16:25.640Z,30.83
2019-02-11T06:17:35.325Z,31.98
2019-02-11T06:18:44.772Z,35.96
2019-02-11T06:19:54.203Z,30.83
2019-02-11T06:21:03.654Z,31.04
2019-02-11T06:22:13.092Z,33.32
2019-02-11T06:23:22.775Z,28.75
2019-02-11T06:24:34.881Z,27.51
2019-02-11T06:25:44.586Z,27.51
2019-02-11T06:26:54.297Z,25.99
2019-02-11T06:28:04.003Z,26.76
2019-02-11T06:29:13.444Z,26.47
2019-02-11T06:30:24.115Z,24.86
2019-02-11T06:31:33.804Z,24.95
2019-02-11T06:32:43.473Z,23.15
2019-02-11T06:33:53.152Z,23.53
2019-02-11T06:35:03.080Z,24.48
2019-02-11T06:36:15.194Z,20.78
2019-02-11T06:37:24.625Z,22.4
2019-02-11T06:38:34.560Z,21.15
2019-02-11T06:39:44.261Z,23.15
2019-02-11T06:40:53.954Z,21.15
2019-02-11T06:42:03.641Z,24.38
2019-02-11T06:43:13.574Z,20.4
2019-02-11T06:44:23.503Z,18.41
2019-02-11T06:45:33.427Z,20.59
2019-02-11T06:46:42.602Z,19.83
2019-02-11T06:47:52.559Z,23.34
2019-02-11T06:49:01.979Z,24.1
2019-02-11T06:50:11.668Z,22.3
2019-02-11T06:51:21.367Z,19.92
2019-02-11T06:52:31.312Z,16.32
2019-02-11T06:53:41.247Z,21.63
2019-02-11T06:54:50.934Z,16.03
2019-02-11T06:56:00.357Z,16.89
2019-02-11T06:57:10.323Z,20.5
2019-02-11T06:58:20.011Z,18.22
2019-02-11T06:59:29.698Z,19.54
2019-02-11T07:00:39.126Z,19.54
2019-02-11T07:01:48.802Z,21.54
2019-02-11T07:02:58.477Z,19.92
2019-02-11T07:04:08.405Z,22.01
2019-02-11T07:05:18.084Z,23.05
2019-02-11T07:06:27.263Z,22.2
2019-02-11T07:07:36.931Z,18.31
2019-02-11T07:08:46.861Z,21.06
2019-02-11T07:09:56.833Z,23.53
2019-02-11T07:11:06.267Z,21.15
2019-02-11T07:12:16.209Z,18.02
2019-02-11T07:13:25.632Z,20.97
2019-02-11T07:14:35.322Z,19.17
2019-02-11T07:15:44.751Z,19.54
2019-02-11T07:16:54.681Z,20.4
2019-02-11T07:18:04.366Z,20.4
2019-02-11T07:19:13.800Z,19.83
2019-02-11T07:20:22.974Z,19.45
2019-02-11T07:21:32.410Z,18.12
2019-02-11T07:22:42.103Z,20.4
2019-02-11T07:23:52.040Z,18.12
2019-02-11T07:25:01.766Z,22.58
2019-02-11T07:26:11.436Z,20.5
2019-02-11T07:27:21.020Z,18.02
2019-02-11T07:28:30.701Z,18.79
2019-02-11T07:29:39.886Z,22.2
2019-02-11T07:30:49.565Z,19.64
2019-02-11T07:31:59.239Z,18.79
2019-02-11T07:33:09.168Z,19.64
2019-02-11T07:34:18.607Z,20.4
2019-02-11T07:35:27.807Z,21.25
2019-02-11T07:36:37.500Z,21.06
2019-02-11T07:37:47.197Z,18.22
2019-02-11T07:38:56.874Z,23.24
2019-02-11T07:40:06.797Z,21.15
2019-02-11T07:41:16.753Z,21.54
2019-02-11T07:42:26.687Z,19.83
2019-02-11T07:43:36.112Z,20.4
2019-02-11T07:44:45.795Z,22.58
2019-02-11T07:45:55.728Z,22.2
2019-02-11T07:47:05.656Z,24.29
2019-02-11T07:48:15.335Z,18.22
2019-02-11T07:49:25.252Z,21.06
2019-02-11T07:50:34.931Z,23.15
2019-02-11T07:51:44.992Z,23.53
2019-02-11T07:52:54.418Z,25.43
2019-02-11T07:54:03.860Z,19.73
2019-02-11T07:55:15.089Z,23.53
2019-02-11T07:56:24.762Z,27.04
2019-02-11T07:57:34.447Z,28.18
2019-02-11T07:58:44.131Z,28.75
2019-02-11T07:59:53.811Z,27.51
2019-02-11T08:01:04.736Z,26.95
2019-02-11T08:02:14.667Z,30.36
2019-02-11T08:03:24.116Z,34.63
2019-02-11T08:04:34.052Z,34.63
2019-02-11T08:05:43.730Z,37.57
2019-02-11T08:06:52.905Z,27.7
2019-02-11T08:08:02.334Z,27.8
2019-02-11T08:09:12.036Z,34.44
2019-02-11T08:10:21.764Z,35.86
2019-02-11T08:11:31.689Z,35.77
2019-02-11T08:12:41.115Z,41.08
2019-02-11T08:13:50.547Z,34.44
2019-02-11T08:15:00.471Z,41.18
2019-02-11T08:16:10.432Z,40.52
2019-02-11T08:17:20.366Z,41.18
2019-02-11T08:18:30.049Z,45.73
2019-02-11T08:19:39.482Z,40.23
2019-02-11T08:20:48.910Z,44.02
2019-02-11T08:21:58.593Z,42.41
2019-02-11T08:23:15.642Z,41.56
2019-02-11T08:24:25.588Z,46.02
2019-02-11T08:25:35.271Z,39.85
2019-02-11T08:26:45.211Z,48.49
2019-02-11T08:27:54.640Z,46.02
2019-02-11T08:29:04.066Z,39.95
2019-02-11T08:30:13.746Z,46.11
2019-02-11T08:31:23.675Z,47.06
2019-02-11T08:32:33.127Z,49.63
2019-02-11T08:33:43.050Z,45.54
2019-02-11T08:34:52.733Z,48.49
2019-02-11T08:36:02.409Z,52.09
2019-02-11T08:37:12.101Z,55.32
2019-02-11T08:38:21.778Z,50.57
2019-02-11T08:39:31.482Z,47.44
2019-02-11T08:40:41.157Z,56.74
2019-02-11T08:41:50.835Z,54.75
2019-02-11T08:43:00.764Z,57.4
2019-02-11T08:44:10.701Z,55.13
2019-02-11T08:45:20.641Z,54.85
2019-02-11T08:46:30.339Z,51.81
2019-02-11T08:47:40.275Z,51.81
2019-02-11T08:48:50.017Z,49.34
2019-02-11T08:49:59.943Z,53.99
2019-02-11T08:51:09.689Z,51.24
2019-02-11T08:52:19.371Z,49.84
2019-02-11T08:53:29.360Z,50.01
2019-02-11T08:54:39.044Z,53.14
2019-02-11T08:55:48.964Z,53.33
2019-02-11T08:56:59.659Z,55.13
2019-02-11T08:58:09.329Z,53.33
2019-02-11T08:59:18.790Z,56.93
2019-02-11T09:00:28.477Z,52.76
2019-02-11T09:01:38.416Z,50.67
2019-02-11T09:02:48.111Z,54.02
2019-02-11T09:03:57.790Z,48.86
2019-02-11T09:05:07.727Z,51.64
2019-02-11T09:06:18.023Z,49.93
2019-02-11T09:07:27.800Z,50.7
2019-02-11T09:08:37.495Z,53.64
2019-02-11T09:09:47.423Z,58.2
2019-02-11T09:10:57.118Z,53.26
2019-02-11T09:12:06.844Z,56.77
2019-02-11T09:13:16.542Z,58.95
2019-02-11T09:14:26.248Z,62.18
2019-02-11T09:15:36.284Z,68.26
2019-02-11T09:16:45.972Z,65.31
2019-02-11T09:17:55.655Z,60.95
2019-02-11T09:19:05.592Z,63.7
2019-02-11T09:20:15.290Z,63.7
2019-02-11T09:21:24.973Z,64.94
2019-02-11T09:22:34.897Z,64.46
2019-02-11T09:23:44.830Z,59.91
2019-02-11T09:24:54.259Z,61.71
2019-02-11T09:26:03.738Z,63.42
2019-02-11T09:27:13.168Z,62.85
2019-02-11T09:28:23.101Z,60.95
2019-02-11T09:29:33.034Z,64.65
2019-02-11T09:30:42.747Z,62.08
2019-02-11T09:31:52.436Z,65.79
2019-02-11T09:33:02.373Z,62.75
2019-02-11T09:34:12.045Z,66.36
2019-02-11T09:35:21.720Z,66.27
2019-02-11T09:36:31.651Z,62.85
2019-02-11T09:37:41.337Z,70.92
2019-02-11T09:38:51.042Z,66.83
2019-02-11T09:40:00.483Z,67.88
2019-02-11T09:41:10.420Z,71.58
2019-02-11T09:42:20.113Z,68.44
2019-02-11T09:43:29.818Z,68.64
2019-02-11T09:44:39.529Z,72.09
2019-02-11T09:45:49.458Z,73.61
2019-02-11T09:47:06.568Z,70.19
2019-02-11T09:48:16.502Z,73.67
2019-02-11T09:49:26.179Z,74.62
2019-02-11T09:50:35.884Z,73.33
2019-02-11T09:51:45.561Z,79.69
2019-02-11T09:52:55.493Z,73.67
2019-02-11T09:54:04.926Z,77.12
2019-02-11T09:55:14.608Z,75.89
2019-02-11T09:56:24.301Z,73.71
2019-02-11T09:57:33.472Z,73.33
2019-02-11T09:58:43.152Z,82.92
2019-02-11T09:59:53.097Z,81.21
2019-02-11T10:01:02.838Z,78.74
2019-02-11T10:02:12.817Z,79.41
2019-02-11T10:03:22.510Z,80.83
2019-02-11T10:04:31.934Z,73.9
2019-02-11T10:05:41.619Z,76.46
2019-02-11T10:06:51.557Z,83.11
2019-02-11T10:08:01.499Z,83.39
2019-02-11T10:09:11.211Z,81.78
2019-02-11T10:10:21.146Z,77.12
2019-02-11T10:11:30.829Z,77.6
2019-02-11T10:12:40.507Z,81.21
2019-02-11T10:13:50.453Z,82.82
2019-02-11T10:15:00.278Z,80.55
2019-02-11T10:16:14.994Z,81.78
2019-02-11T10:17:32.208Z,83.97
2019-02-11T10:18:41.644Z,85.01
2019-02-11T10:19:51.072Z,79.79
2019-02-11T10:21:01.008Z,84.91
2019-02-11T10:22:10.195Z,82.35
2019-02-11T10:23:19.874Z,80.83
2019-02-11T10:24:29.553Z,84.25
2019-02-11T10:25:39.557Z,85.96
2019-02-11T10:26:49.636Z,83.97
2019-02-11T10:27:59.581Z,78.55
2019-02-11T10:29:09.311Z,79.5
2019-02-11T10:30:18.250Z,82.64
2019-02-11T10:31:27.698Z,83.78
2019-02-11T10:32:37.115Z,88.9
2019-02-11T10:33:46.577Z,82.73
2019-02-11T10:34:56.006Z,87.38
2019-02-11T10:36:05.432Z,87.1
2019-02-11T10:37:15.366Z,85.01
2019-02-11T10:38:24.814Z,87.1
2019-02-11T10:39:41.684Z,88
2019-02-11T10:40:51.143Z,88.62
2019-02-11T10:42:00.853Z,88.43
2019-02-11T10:43:10.541Z,87.76
2019-02-11T10:44:20.491Z,88.53
2019-02-11T10:45:38.764Z,87.19
2019-02-11T10:46:48.437Z,88.85
2019-02-11T10:47:57.878Z,87.86
2019-02-11T10:49:07.564Z,87.52
2019-02-11T10:50:17.012Z,90.47
2019-02-11T10:51:26.943Z,91.13
2019-02-11T10:52:36.645Z,89.09
2019-02-11T10:53:46.171Z,88.43
2019-02-11T10:54:55.844Z,89.71
2019-02-11T10:56:05.769Z,90.09
2019-02-11T10:57:15.695Z,90.85
2019-02-11T10:58:25.384Z,89.14
2019-02-11T10:59:35.311Z,89.23
2019-02-11T11:00:45.003Z,89.61
2019-02-11T11:01:54.676Z,89.8
2019-02-11T11:03:04.117Z,89.71
2019-02-11T11:04:13.608Z,89.14
2019-02-11T11:05:23.038Z,90.94
2019-02-11T11:06:32.966Z,90.19
2019-02-11T11:07:42.635Z,92.85
2019-02-11T11:08:52.344Z,90.28
2019-02-11T11:10:02.022Z,89.71
2019-02-11T11:11:11.713Z,92.18
2019-02-11T11:12:21.645Z,91.13
2019-02-11T11:13:31.322Z,92.27
2019-02-11T11:14:40.749Z,90.66
2019-02-11T11:15:50.757Z,91.04
2019-02-11T11:17:00.696Z,90.28
2019-02-11T11:18:10.133Z,90.75
2019-02-11T11:19:19.818Z,89.52
2019-02-11T11:20:29.757Z,89.28
2019-02-11T11:21:39.450Z,88.15
2019-02-11T11:22:49.146Z,90.37
2019-02-11T11:23:58.581Z,89.47
2019-02-11T11:25:08.272Z,89.8
2019-02-11T11:26:17.950Z,87.1
2019-02-11T11:27:27.494Z,90.33
2019-02-11T11:28:37.172Z,89.86
2019-02-11T11:29:46.354Z,86.72
2019-02-11T11:30:55.798Z,88.09
2019-02-11T11:32:05.245Z,88.95
2019-02-11T11:33:15.184Z,89.14
2019-02-11T11:34:24.621Z,88.67
2019-02-11T11:35:34.552Z,88.76
2019-02-11T11:36:44.498Z,89.52
2019-02-11T11:37:54.223Z,91.13
2019-02-11T11:39:03.902Z,88.95
2019-02-11T11:40:13.824Z,90.94
2019-02-11T11:41:23.262Z,92.46
2019-02-11T11:42:32.448Z,91.23
2019-02-11T11:43:42.153Z,90.56
2019-02-11T11:44:51.843Z,90.09
2019-02-11T11:46:01.559Z,93.51
2019-02-11T11:47:11.246Z,92.75
2019-02-11T11:48:20.917Z,92.56
2019-02-11T11:49:30.250Z,92.08
2019-02-11T11:50:39.945Z,92.18
2019-02-11T11:51:49.867Z,90.75
2019-02-11T11:52:59.542Z,93.13
2019-02-11T11:54:09.224Z,90.19
2019-02-11T11:55:19.079Z,91.89
2019-02-11T11:56:29.212Z,93.51
2019-02-11T11:57:39.190Z,91.33
2019-02-11T11:58:49.215Z,92.75
2019-02-11T11:59:59.263Z,92.37
2019-02-11T12:01:09.470Z,93.51
2019-02-11T12:02:24.445Z,91.61
2019-02-11T12:03:34.445Z,93.32
2019-02-11T12:04:44.184Z,93.51
2019-02-11T12:05:54.202Z,91.52
2019-02-11T12:07:04.011Z,93.79
2019-02-11T12:08:14.046Z,92.56
2019-02-11T12:09:24.027Z,91.33
2019-02-11T12:10:34.157Z,92.56
2019-02-11T12:11:44.170Z,92.08
2019-02-11T12:12:54.157Z,91.89
2019-02-11T12:14:24.355Z,92.66
2019-02-11T12:15:34.430Z,92.94
2019-02-11T12:17:02.596Z,93.23
2019-02-11T12:18:12.663Z,93.04
2019-02-11T12:19:22.708Z,93.51
2019-02-11T12:20:36.182Z,92.08
2019-02-11T12:21:46.228Z,93.13
2019-02-11T12:22:56.195Z,93.32
2019-02-11T12:24:06.046Z,93.7
2019-02-11T12:25:16.065Z,94.23
2019-02-11T12:26:26.109Z,93.18
2019-02-11T12:27:35.987Z,93.56
2019-02-11T12:28:46.051Z,93.6
2019-02-11T12:29:56.074Z,93.79
2019-02-11T12:31:05.574Z,93.94
2019-02-11T12:32:15.609Z,93.37
2019-02-11T12:33:25.130Z,94.23
2019-02-11T12:34:35.105Z,93.84
2019-02-11T12:35:44.884Z,93.75
2019-02-11T12:36:54.873Z,94.23
2019-02-11T12:38:04.855Z,94.13
2019-02-11T12:39:14.952Z,94.46
2019-02-11T12:40:24.674Z,93.75
2019-02-11T12:41:34.694Z,93.6
2019-02-11T12:42:44.706Z,93.79
2019-02-11T12:43:58.453Z,94.37
2019-02-11T12:45:08.489Z,93.94
2019-02-11T12:46:18.558Z,92.99
2019-02-11T12:47:28.285Z,93.56
2019-02-11T12:48:38.264Z,94.84
2019-02-11T12:49:48.306Z,93.41
2019-02-11T12:50:58.058Z,95.03
2019-02-11T12:52:08.036Z,92.94
2019-02-11T12:53:18.021Z,94.46
2019-02-11T12:54:28.028Z,91.8
2019-02-11T12:55:38.073Z,90.8
2019-02-11T12:56:48.067Z,91.99
2019-02-11T12:57:57.600Z,90.94
2019-02-11T12:59:07.593Z,90
2019-02-11T13:00:19.757Z,83.91
2019-02-11T13:01:29.198Z,81.63
2019-02-11T13:02:39.261Z,80.68
2019-02-11T13:03:49.007Z,74.47
2019-02-11T13:04:58.976Z,72
2019-02-11T13:06:09.147Z,70.76
2019-02-11T13:07:18.942Z,70.95
2019-02-11T13:08:28.929Z,75.51
2019-02-11T13:09:40.488Z,72.72
2019-02-11T13:10:50.237Z,76.75
2019-02-11T13:12:00.269Z,75.04
2019-02-11T13:13:10.179Z,78.55
2019-02-11T13:14:20.010Z,83.78
2019-02-11T13:16:02.688Z,78.36
2019-02-11T13:17:32.545Z,82.16
2019-02-11T13:18:43.584Z,79.79
2019-02-11T13:20:11.945Z,81.59
2019-02-11T13:21:22.829Z,79.69
2019-02-11T13:22:32.582Z,78.45
2019-02-11T13:23:42.627Z,83.11
2019-02-11T13:24:52.653Z,85.58
2019-02-11T13:26:02.404Z,88.43
2019-02-11T13:27:11.886Z,85.86
2019-02-11T13:28:21.636Z,85.86
2019-02-11T13:29:31.647Z,82.54
2019-02-11T13:30:41.124Z,82.92
2019-02-11T13:31:51.108Z,85.58
2019-02-11T13:33:01.105Z,87.05
2019-02-11T13:34:10.874Z,84.29
2019-02-11T13:35:20.856Z,86.95
2019-02-11T13:36:30.893Z,87.19
2019-02-11T13:37:40.898Z,85.96
2019-02-11T13:38:51.194Z,87.34
2019-02-11T13:40:01.168Z,85.86
2019-02-11T13:41:10.902Z,87.05
2019-02-11T13:42:20.903Z,89.14
2019-02-11T13:43:30.905Z,87.01
2019-02-11T13:44:40.913Z,87.95
2019-02-11T13:45:50.698Z,86.24
2019-02-11T13:47:00.693Z,88.67
2019-02-11T13:48:10.689Z,87.67
2019-02-11T13:49:20.449Z,89.86
2019-02-11T13:50:30.695Z,89.19
2019-02-11T13:51:40.706Z,87.48
2019-02-11T13:52:50.728Z,86.82
2019-02-11T13:54:00.574Z,87.57
2019-02-11T13:55:10.594Z,88.28
2019-02-11T13:56:20.712Z,89.33
2019-02-11T13:57:30.802Z,88.09
2019-02-11T13:58:40.837Z,87.14
2019-02-11T13:59:54.820Z,87.71
2019-02-11T14:01:04.911Z,89.52
2019-02-11T14:02:15.016Z,92.56
2019-02-11T14:03:25.026Z,90.85
2019-02-11T14:04:35.065Z,89.71
2019-02-11T14:05:44.807Z,90.85
2019-02-11T14:06:54.566Z,91.52
2019-02-11T14:08:04.645Z,91.23
2019-02-11T14:09:14.654Z,90.19
2019-02-11T14:10:24.784Z,92.18
2019-02-11T14:11:34.872Z,89.61
2019-02-11T14:12:44.866Z,93.32
2019-02-11T14:14:05.184Z,90.66
2019-02-11T14:15:19.932Z,91.89
2019-02-11T14:16:30.538Z,93.79
2019-02-11T14:17:40.581Z,91.8
2019-02-11T14:18:50.566Z,93.89
2019-02-11T14:20:00.682Z,92.75
2019-02-11T14:21:10.819Z,91.23
2019-02-11T14:22:20.899Z,95.22
2019-02-11T14:23:31.109Z,95.22
2019-02-11T14:24:41.122Z,93.99
2019-02-11T14:25:51.127Z,93.6
2019-02-11T14:27:01.194Z,93.04
2019-02-11T14:28:10.724Z,92.27
2019-02-11T14:29:20.780Z,93.32
2019-02-11T14:30:30.787Z,93.23
2019-02-11T14:31:40.538Z,93.04
2019-02-11T14:32:50.529Z,93.89
2019-02-11T14:34:00.297Z,94.27
2019-02-11T14:35:15.106Z,93.51
2019-02-11T14:36:25.090Z,93.23
2019-02-11T14:37:35.248Z,93.27
2019-02-11T14:38:45.326Z,94.22
2019-02-11T14:39:55.175Z,93.37
2019-02-11T14:41:05.099Z,93.84
2019-02-11T14:42:17.603Z,93.84
2019-02-11T14:43:27.372Z,93.18
2019-02-11T14:44:37.361Z,94.42
2019-02-11T14:45:47.346Z,94.7
2019-02-11T14:46:57.091Z,92.03
2019-02-11T14:48:06.860Z,93.27
2019-02-11T14:49:35.041Z,95.17
2019-02-11T14:50:45.023Z,93.27
2019-02-11T14:51:54.718Z,93.84
2019-02-11T14:53:04.179Z,93.46
2019-02-11T14:54:13.872Z,94.03
2019-02-11T14:55:23.308Z,93.27
2019-02-11T14:56:33.255Z,94.03
2019-02-11T14:57:42.940Z,92.8
2019-02-11T14:58:52.881Z,93.37
2019-02-11T15:00:03.766Z,94.79
2019-02-11T15:01:13.819Z,93.55
2019-02-11T15:02:23.749Z,94.98
2019-02-11T15:03:33.238Z,93.08
2019-02-11T15:04:42.676Z,94.32
2019-02-11T15:05:52.378Z,94.7
2019-02-11T15:07:02.069Z,95.65
2019-02-11T15:08:12.008Z,94.6
2019-02-11T15:09:21.954Z,93.65
2019-02-11T15:10:31.962Z,95.17
2019-02-11T15:11:41.654Z,95.46
2019-02-11T15:12:51.106Z,94.51
2019-02-11T15:14:00.808Z,95.17
2019-02-11T15:15:10.275Z,94.98
2019-02-11T15:16:20.211Z,94.27